Redditch, United Kingdom

3:31 AM BST on September 30, 2016 (GMT +0100)
| | Change Station

Elev -9999 ft 0.00 °N, 0.00 °E | Updated

Partly Cloudy
Partly Cloudy
49 °F
Feels Like 49 °F
N
7
Wind Variable Wind from SW
Gusts mph

Today
High -- | Low -- °F
--% Chance of Precip.
Yesterday
High -- | Low -- °F
Precip. -- in
Pressure 29.86 in
Visibility -9999.0 miles
Clouds
Dew Point 46 °F
Humidity 90%
Rainfall --
Snow Depth Not available.
7:07 AM 6:46 PM
Waning Crescent, 1% visible
METAR EGBB 300220Z 23006KT 210V270 CAVOK 11/09 Q1011
Pressure 29.86 in
Visibility -9999.0 miles
Clouds
Dew Point 46 °F
Humidity 90%
Rainfall --
Snow Depth Not available.
7:07 AM 6:46 PM
Waning Crescent, 1% visible
METAR EGBB 300220Z 23006KT 210V270 CAVOK 11/09 Q1011

10-Day Weather Forecast

×

Almanac

Astronomy

Sep. 30, 2016 Rise Set
Actual Time
Civil Twilight
Nautical Twilight
Astronomical Twilight
Moon
Length of Visible Light
Length of Day
Tomorrow will be .
, % of the Moon is Illuminated

Today's Extremes

Country Highs Country Lows

Community

WunderPhotos

Upload Photos

1,942,640 photos uploaded!

WunderBlog® & News

Nearby

Air Quality

  Air Quality AQ Index Pollutant
Not available.

Snow Depth

Station Depth Elevation

Earthquake Activity

City Distance Mag. Time & Date
Minimum magnitude displayed is 2.5.

Coastal Water Temperatures

Place Temperature

Stations

Nearby Weather Stations

Station Location Temp. Windchill Dew Point Humidity Wind Precip. Elev Updated Type